Time;durP1;ratioP1;P1;durP2;ratioP2;P2;SDS_P1;SDS_P2;PMS_P1;PMS_P2;Temp;Humidity;BMP_temperature;BMP_pressure;BME280_temperature;BME280_humidity;BME280_pressure;Samples;Min_cycle;Max_cycle;Signal;HPM_P1;HPM_P2
2021/06/20 00:05:53;;;;;;;1999.90;999.90;;;;;;;25.10;65.76;100613.19;15396153;28;20060;-64
2021/06/20 00:13:26;;;;;;;1999.90;999.90;;;;;;;25.03;66.25;100611.31;15409694;28;20043;-65
2021/06/20 00:20:58;;;;;;;1999.90;999.90;;;;;;;24.84;66.56;100605.50;15411612;28;20045;-65
2021/06/20 00:28:32;;;;;;;1999.90;999.90;;;;;;;24.84;66.97;100599.78;15400449;28;20135;-64
2021/06/20 00:36:05;;;;;;;1999.90;999.90;;;;;;;24.73;66.94;100600.78;15421336;28;20035;-65
2021/06/20 00:43:39;;;;;;;1999.90;999.90;;;;;;;24.74;67.10;100599.53;15410295;28;20083;-63
2021/06/20 00:51:11;;;;;;;1999.90;999.90;;;;;;;24.61;67.47;100601.38;15418471;28;20050;-65
2021/06/20 00:58:45;;;;;;;1999.90;999.90;;;;;;;24.59;67.57;100586.72;15404275;28;20055;-65
2021/06/20 01:06:17;;;;;;;1999.90;999.90;;;;;;;24.42;67.59;100582.94;15403997;28;20129;-64
2021/06/20 01:13:52;;;;;;;1999.90;999.90;;;;;;;24.30;68.15;100540.75;15404013;28;20134;-65
2021/06/20 01:21:24;;;;;;;1999.90;999.90;;;;;;;24.17;68.48;100526.25;15390333;28;20075;-64
2021/06/20 01:29:03;;;;;;;1999.90;999.90;;;;;;;24.18;68.21;100512.84;15403945;28;20118;-65
2021/06/20 01:36:36;;;;;;;1999.90;999.90;;;;;;;24.18;67.29;100488.00;15405494;28;20130;-64
2021/06/20 01:44:09;;;;;;;1999.90;999.90;;;;;;;24.44;66.56;100460.69;15398036;28;20094;-64
2021/06/20 01:51:42;;;;;;;1999.90;999.90;;;;;;;24.60;66.10;100462.88;15407353;28;20043;-64
2021/06/20 01:59:16;;;;;;;1999.90;999.90;;;;;;;24.54;66.29;100458.88;15411085;28;20047;-64
2021/06/20 02:06:48;;;;;;;1999.90;999.90;;;;;;;24.52;66.37;100487.03;15407381;28;20043;-63
2021/06/20 02:14:22;;;;;;;1999.90;999.90;;;;;;;24.50;66.25;100522.94;15427519;28;20051;-64
2021/06/20 02:21:54;;;;;;;1999.90;999.90;;;;;;;24.39;67.39;100523.13;15426456;28;20055;-63
2021/06/20 02:29:27;;;;;;;1999.90;999.90;;;;;;;24.28;67.33;100551.78;15396032;28;20519;-65
2021/06/20 02:36:59;;;;;;;1999.90;999.90;;;;;;;24.10;67.07;100566.28;15373579;29;20314;-66
2021/06/20 02:44:33;;;;;;;1999.90;999.90;;;;;;;23.94;68.24;100565.31;15375374;28;20051;-64
2021/06/20 02:52:07;;;;;;;1999.90;999.90;;;;;;;23.50;69.35;100539.41;15385282;28;20563;-64
2021/06/20 02:59:41;;;;;;;1999.90;999.90;;;;;;;23.52;69.69;100530.41;15377095;28;20516;-64
2021/06/20 03:07:15;;;;;;;1999.90;999.90;;;;;;;23.50;69.99;100556.47;15409010;28;20078;-64
2021/06/20 03:14:48;;;;;;;1999.90;999.90;;;;;;;23.81;68.42;100545.13;15400565;28;20052;-65
2021/06/20 03:22:21;;;;;;;1999.90;999.90;;;;;;;23.78;68.41;100546.81;15430204;28;20062;-65
2021/06/20 03:29:54;;;;;;;1999.90;999.90;;;;;;;23.69;68.57;100528.63;15413999;28;20039;-65
2021/06/20 03:37:26;;;;;;;1999.90;999.90;;;;;;;23.68;68.82;100518.47;15405068;28;20134;-65
2021/06/20 03:45:00;;;;;;;1999.90;999.90;;;;;;;23.70;68.99;100488.31;15424690;28;20131;-66
2021/06/20 03:52:32;;;;;;;1999.90;999.90;;;;;;;23.35;70.79;100455.41;15410551;28;20047;-65
2021/06/20 04:00:10;;;;;;;1999.90;999.90;;;;;;;23.64;69.58;100458.69;15432486;28;20058;-65
2021/06/20 04:07:42;;;;;;;1999.90;999.90;;;;;;;23.79;70.32;100456.44;15423996;28;20077;-65
2021/06/20 04:15:16;;;;;;;1999.90;999.90;;;;;;;24.15;68.97;100442.44;15439569;28;20050;-65
2021/06/20 04:22:48;;;;;;;1999.90;999.90;;;;;;;24.44;68.34;100420.78;15413577;28;20126;-66
2021/06/20 04:30:23;;;;;;;1999.90;999.90;;;;;;;24.52;67.89;100426.34;15426540;28;20046;-65
2021/06/20 04:38:16;;;;;;;1999.90;999.90;;;;;;;24.82;67.11;100437.59;15401075;28;20046;-64
2021/06/20 04:45:49;;;;;;;1999.90;999.90;;;;;;;25.45;65.04;100456.72;15381944;28;20078;-65
2021/06/20 04:53:21;;;;;;;1999.90;999.90;;;;;;;25.96;63.84;100460.06;15411528;28;20421;-65
2021/06/20 05:00:55;;;;;;;1999.90;999.90;;;;;;;25.85;63.77;100446.03;15399277;28;20549;-65
2021/06/20 05:08:27;;;;;;;1999.90;999.90;;;;;;;26.30;62.65;100465.34;15415424;28;20047;-65
2021/06/20 05:16:01;;;;;;;1999.90;999.90;;;;;;;26.42;62.08;100464.66;15410444;28;20134;-65
2021/06/20 05:23:33;;;;;;;1999.90;999.90;;;;;;;26.33;62.48;100465.25;15420158;28;20054;-64
2021/06/20 05:31:07;;;;;;;1999.90;999.90;;;;;;;26.87;62.03;100444.59;15393673;28;20042;-65
2021/06/20 05:38:39;;;;;;;1999.90;999.90;;;;;;;26.73;61.96;100453.59;15390720;28;20054;-66
2021/06/20 05:46:12;;;;;;;;;;;;;;;26.81;62.04;100462.81;15411766;28;20512;-62
2021/06/20 05:53:45;;;;;;;1999.90;999.90;;;;;;;27.25;61.30;100453.38;15405010;28;20450;-66
2021/06/20 06:01:18;;;;;;;1999.90;999.90;;;;;;;27.63;60.52;100448.97;15396359;28;20051;-66
2021/06/20 06:08:50;;;;;;;1999.90;999.90;;;;;;;28.13;58.62;100469.06;15415276;28;20054;-66
2021/06/20 06:16:24;;;;;;;;;;;;;;;28.99;56.25;100478.44;15404298;28;20134;-65
2021/06/20 06:23:56;;;;;;;1999.90;999.90;;;;;;;29.13;56.12;100468.50;15410841;28;19968;-66
2021/06/20 06:31:29;;;;;;;1999.90;999.90;;;;;;;29.20;56.05;100474.00;15405350;28;20504;-65
2021/06/20 06:39:01;;;;;;;1999.90;999.90;;;;;;;29.55;54.87;100466.09;15402569;28;20138;-66
2021/06/20 06:46:35;;;;;;;1999.90;999.90;;;;;;;29.63;54.53;100448.59;15402831;28;20043;-66
2021/06/20 06:54:07;;;;;;;1999.90;999.90;;;;;;;29.77;54.84;100442.25;15407885;28;20055;-65
2021/06/20 07:01:41;;;;;;;1999.90;999.90;;;;;;;30.15;54.79;100444.81;15462241;28;20112;-63
2021/06/20 07:09:13;;;;;;;1999.90;999.90;;;;;;;30.43;54.25;100440.75;15401425;28;20043;-62
2021/06/20 07:16:47;;;;;;;1999.90;999.90;;;;;;;30.18;53.94;100435.25;15420698;28;20074;-62
2021/06/20 07:24:20;;;;;;;1999.90;999.90;;;;;;;30.40;52.75;100446.63;15408446;28;20050;-64
2021/06/20 07:31:53;;;;;;;1999.90;999.90;;;;;;;30.76;52.99;100433.59;15428805;28;20050;-64
2021/06/20 07:39:26;;;;;;;1999.90;999.90;;;;;;;30.94;50.37;100425.75;15416427;28;20031;-60
2021/06/20 07:46:59;;;;;;;1999.90;999.90;;;;;;;30.99;51.71;100422.22;15420727;28;20038;-63
2021/06/20 07:54:31;;;;;;;1999.90;999.90;;;;;;;30.92;52.41;100410.22;15397765;28;20047;-67
2021/06/20 08:02:05;;;;;;;1999.90;999.90;;;;;;;31.17;49.45;100417.72;15424657;28;20570;-64
2021/06/20 08:09:37;;;;;;;1999.90;999.90;;;;;;;31.49;45.62;100416.25;15419833;28;20039;-66
2021/06/20 08:17:11;;;;;;;1999.90;999.90;;;;;;;31.78;44.17;100410.69;15441366;28;20049;-64
2021/06/20 08:24:43;;;;;;;1999.90;999.90;;;;;;;31.89;44.11;100401.53;15383684;28;20106;-64
2021/06/20 08:32:18;;;;;;;1999.90;999.90;;;;;;;32.09;42.99;100424.81;15421338;28;20075;-64
2021/06/20 08:39:50;;;;;;;1999.90;999.90;;;;;;;32.49;41.68;100432.28;15400975;28;20053;-63
2021/06/20 08:47:24;;;;;;;1999.90;999.90;;;;;;;32.44;42.06;100410.69;15394262;28;20506;-63
2021/06/20 08:55:03;;;;;;;1999.90;999.90;;;;;;;32.61;41.50;100424.66;15419702;28;20527;-64
2021/06/20 09:02:37;;;;;;;1999.90;999.90;;;;;;;32.76;41.26;100418.94;15441510;28;20146;-63
2021/06/20 09:10:15;;;;;;;1999.90;999.90;;;;;;;33.58;39.44;100407.41;15404209;28;20074;-64
2021/06/20 09:17:55;;;;;;;1999.90;999.90;;;;;;;34.99;37.63;100416.00;15433319;28;20073;-65
2021/06/20 09:25:28;;;;;;;1999.90;999.90;;;;;;;34.57;38.67;100416.53;15432418;28;20078;-64
2021/06/20 09:33:05;;;;;;;1999.90;999.90;;;;;;;35.06;38.62;100414.75;15414651;28;20074;-64
2021/06/20 09:40:38;;;;;;;1999.90;999.90;;;;;;;36.09;36.94;100410.94;15427642;28;20051;-65
2021/06/20 09:48:26;;;;;;;1999.90;999.90;;;;;;;36.30;36.63;100400.78;15468845;28;20043;-62
2021/06/20 09:56:13;;;;;;;1999.90;999.90;;;;;;;37.41;35.29;100408.31;15436651;28;20050;-62
2021/06/20 10:03:47;;;;;;;1999.90;999.90;;;;;;;36.59;36.36;100407.53;15400241;28;20092;-63
2021/06/20 10:11:20;;;;;;;1999.90;999.90;;;;;;;37.49;34.13;100399.84;15417787;28;20043;-61
2021/06/20 10:18:57;;;;;;;1999.90;999.90;;;;;;;38.39;33.67;100404.25;15390243;28;20043;-63
2021/06/20 10:26:29;;;;;;;1999.90;999.90;;;;;;;38.19;33.51;100398.72;15438440;28;20074;-63
2021/06/20 10:34:17;;;;;;;1999.90;999.90;;;;;;;38.77;33.13;100395.91;15400265;28;20075;-63
2021/06/20 10:42:02;;;;;;;1999.90;999.90;;;;;;;39.26;32.33;100402.78;15400710;28;20047;-63
2021/06/20 10:49:37;;;;;;;1999.90;999.90;;;;;;;39.07;31.10;100404.72;15394651;28;20047;-64
2021/06/20 10:57:12;;;;;;;1999.90;999.90;;;;;;;39.69;31.02;100402.19;15418242;28;20114;-62
2021/06/20 11:04:46;;;;;;;1999.90;999.90;;;;;;;37.14;33.06;100389.47;15417658;28;20042;-64
2021/06/20 11:12:18;;;;;;;1999.90;999.90;;;;;;;37.42;33.37;100401.19;15408658;28;20070;-62
2021/06/20 11:19:52;;;;;;;1999.90;999.90;;;;;;;38.36;31.80;100398.72;15427267;28;20079;-63
2021/06/20 11:27:25;;;;;;;1999.90;999.90;;;;;;;38.39;31.71;100378.03;15438278;28;20504;-63
2021/06/20 11:35:01;;;;;;;1999.90;999.90;;;;;;;38.05;31.33;100388.19;15445666;28;20126;-63
2021/06/20 11:42:36;;;;;;;1999.90;999.90;;;;;;;39.12;29.99;100382.75;15440891;28;20043;-61
2021/06/20 11:50:18;;;;;;;1999.90;999.90;;;;;;;38.53;30.19;100384.06;15443390;28;20045;-62
2021/06/20 11:57:51;;;;;;;1999.90;999.90;;;;;;;36.49;33.40;100371.31;15426542;28;20047;-63
2021/06/20 12:05:25;;;;;;;1999.90;999.90;;;;;;;36.42;33.17;100369.69;15440223;28;20053;-62
2021/06/20 12:12:59;;;;;;;1999.90;999.90;;;;;;;36.47;32.42;100365.22;15442584;28;20069;-64
2021/06/20 12:20:36;;;;;;;1999.90;999.90;;;;;;;39.52;29.46;100367.28;15441007;28;20078;-63
2021/06/20 12:28:11;;;;;;;1999.90;999.90;;;;;;;38.20;31.81;100376.22;15440759;28;20094;-63
2021/06/20 12:35:46;;;;;;;1999.90;999.90;;;;;;;40.58;27.74;100371.25;15441152;28;20520;-61
2021/06/20 12:43:20;;;;;;;1999.90;999.90;;;;;;;40.15;28.21;100376.28;15441179;28;20039;-64
2021/06/20 12:50:57;;;;;;;1999.90;999.90;;;;;;;38.09;30.78;100363.28;15439949;28;20452;-63
2021/06/20 12:58:29;;;;;;;1999.90;999.90;;;;;;;39.15;29.29;100364.94;15443272;28;20039;-63
2021/06/20 13:06:10;;;;;;;1999.90;999.90;;;;;;;37.71;31.73;100359.09;15449561;28;20043;-60
2021/06/20 13:13:42;;;;;;;1999.90;999.90;;;;;;;37.12;32.84;100348.50;15433655;28;20051;-63
2021/06/20 13:21:17;;;;;;;1999.90;999.90;;;;;;;36.94;34.99;100337.38;15430302;28;20031;-61
2021/06/20 13:28:50;;;;;;;1999.90;999.90;;;;;;;37.88;32.06;100340.84;15421703;28;20134;-61
2021/06/20 13:36:24;;;;;;;1999.90;999.90;;;;;;;37.88;28.49;100346.66;15431302;28;20542;-62
2021/06/20 13:43:57;;;;;;;1999.90;999.90;;;;;;;36.95;30.61;100341.88;15429288;28;20125;-62
2021/06/20 13:51:30;;;;;;;1999.90;999.90;;;;;;;37.10;31.47;100341.59;15437554;28;20050;-62
2021/06/20 13:59:03;;;;;;;1999.90;999.90;;;;;;;37.25;29.04;100334.22;15435269;28;20042;-61
2021/06/20 14:06:36;;;;;;;1999.90;999.90;;;;;;;36.51;29.90;100340.41;15436557;28;20109;-62
2021/06/20 14:14:09;;;;;;;1999.90;999.90;;;;;;;36.68;29.40;100334.63;15436923;28;20097;-59
2021/06/20 14:21:42;;;;;;;1999.90;999.90;;;;;;;36.90;27.68;100331.03;15429883;28;20397;-62
2021/06/20 14:29:15;;;;;;;1999.90;999.90;;;;;;;36.53;28.60;100326.16;15422077;28;20109;-64
2021/06/20 14:36:48;;;;;;;1999.90;999.90;;;;;;;36.27;27.86;100328.38;15428347;28;20133;-64
2021/06/20 14:44:20;;;;;;;1999.90;999.90;;;;;;;36.29;28.05;100325.78;15436014;28;20046;-60
2021/06/20 14:51:54;;;;;;;1999.90;999.90;;;;;;;36.43;26.93;100325.59;15435478;28;20049;-60
2021/06/20 14:59:27;;;;;;;1999.90;999.90;;;;;;;36.59;26.00;100311.66;15425583;28;20045;-65
2021/06/20 15:07:01;;;;;;;1999.90;999.90;;;;;;;36.41;26.71;100304.19;15433409;28;20068;-63
2021/06/20 15:14:33;;;;;;;1999.90;999.90;;;;;;;35.96;26.63;100291.59;15442506;28;20078;-58
2021/06/20 15:22:07;;;;;;;1999.90;999.90;;;;;;;35.69;27.84;100275.56;15429237;28;20492;-58
2021/06/20 15:29:44;;;;;;;1999.90;999.90;;;;;;;35.36;28.93;100252.91;15446170;28;20100;-61
2021/06/20 15:37:18;;;;;;;1999.90;999.90;;;;;;;35.35;28.16;100240.53;15445576;28;20472;-62
2021/06/20 15:44:50;;;;;;;1999.90;999.90;;;;;;;35.03;28.74;100230.28;15444449;28;20125;-62
2021/06/20 15:52:23;;;;;;;1999.90;999.90;;;;;;;34.71;29.90;100225.22;15444457;28;20146;-66
2021/06/20 15:59:56;;;;;;;1999.90;999.90;;;;;;;34.59;30.56;100226.41;15442035;28;20142;-63
2021/06/20 16:07:29;;;;;;;1999.90;999.90;;;;;;;34.53;30.84;100233.47;15421322;28;20042;-61
2021/06/20 16:15:02;;;;;;;1999.90;999.90;;;;;;;34.53;31.08;100231.38;15382788;29;20143;-62
2021/06/20 16:22:36;;;;;;;1999.90;999.90;;;;;;;34.78;32.28;100240.56;15382586;28;20077;-62
2021/06/20 16:30:11;;;;;;;1999.90;999.90;;;;;;;34.54;31.75;100229.25;15397842;28;20098;-63
2021/06/20 16:37:46;;;;;;;1999.90;999.90;;;;;;;34.70;30.38;100229.44;15380751;29;20054;-63
2021/06/20 16:45:20;;;;;;;1999.90;999.90;;;;;;;34.46;30.56;100231.03;15394973;28;20133;-63
2021/06/20 16:52:53;;;;;;;1999.90;999.90;;;;;;;34.27;29.00;100234.22;15438362;28;20055;-63
2021/06/20 17:00:25;;;;;;;1999.90;999.90;;;;;;;34.09;29.93;100240.34;15440389;28;20093;-62
2021/06/20 17:08:00;;;;;;;1999.90;999.90;;;;;;;33.98;30.24;100228.63;15439939;28;20071;-60
2021/06/20 17:15:33;;;;;;;1999.90;999.90;;;;;;;34.06;30.89;100241.34;15439146;28;20117;-61
2021/06/20 17:23:07;;;;;;;1999.90;999.90;;;;;;;33.91;34.03;100241.44;15431732;28;20046;-60
2021/06/20 17:30:39;;;;;;;1999.90;999.90;;;;;;;33.73;33.42;100247.47;15443032;28;20055;-60
2021/06/20 17:38:14;;;;;;;1999.90;999.90;;;;;;;33.47;34.45;100247.38;15418077;28;20043;-62
2021/06/20 17:45:48;;;;;;;1999.90;999.90;;;;;;;33.03;33.52;100268.44;15417222;28;20123;-62
2021/06/20 17:53:24;;;;;;;1999.90;999.90;;;;;;;32.68;35.19;100254.69;15425771;28;20580;-61
2021/06/20 18:00:56;;;;;;;1999.90;999.90;;;;;;;32.66;37.39;100265.13;15426850;28;20093;-63
2021/06/20 18:08:32;;;;;;;1999.90;999.90;;;;;;;32.51;37.32;100282.44;15421128;28;20491;-63
2021/06/20 18:16:05;;;;;;;1999.90;999.90;;;;;;;32.27;39.33;100279.59;15424523;28;20043;-63
2021/06/20 18:23:39;;;;;;;1999.90;999.90;;;;;;;32.09;38.26;100291.25;15396345;28;20051;-63
2021/06/20 18:31:13;;;;;;;1999.90;999.90;;;;;;;31.89;40.83;100297.69;15429095;28;20461;-64
2021/06/20 18:38:46;;;;;;;1999.90;999.90;;;;;;;32.01;37.06;100296.63;15392915;28;20496;-63
2021/06/20 18:46:19;;;;;;;1999.90;999.90;;;;;;;31.83;39.84;100317.75;15398086;28;20090;-60
2021/06/20 18:53:52;;;;;;;1999.90;999.90;;;;;;;31.64;39.75;100332.72;15410557;28;20043;-64
2021/06/20 19:01:26;;;;;;;1999.90;999.90;;;;;;;31.35;41.73;100331.22;15444504;28;20493;-61
2021/06/20 19:08:59;;;;;;;1999.90;999.90;;;;;;;31.19;41.38;100329.50;15405556;28;20382;-61
2021/06/20 19:16:32;;;;;;;1999.90;999.90;;;;;;;30.97;42.59;100320.28;15401650;28;20043;-60
2021/06/20 19:24:07;;;;;;;1999.90;999.90;;;;;;;30.80;43.86;100322.72;15430342;28;20130;-62
2021/06/20 19:31:41;;;;;;;1999.90;999.90;;;;;;;30.55;43.92;100323.84;15401701;28;20129;-61
2021/06/20 19:39:15;;;;;;;1999.90;999.90;;;;;;;30.32;45.25;100316.63;15407500;28;20130;-61
2021/06/20 19:46:48;;;;;;;1999.90;999.90;;;;;;;30.13;45.55;100317.91;15386817;28;20079;-60
2021/06/20 19:54:26;;;;;;;1999.90;999.90;;;;;;;29.95;45.13;100315.78;15394421;28;20460;-60
2021/06/20 20:02:00;;;;;;;1999.90;999.90;;;;;;;29.74;44.49;100311.75;15425578;28;20050;-61
2021/06/20 20:09:35;;;;;;;1999.90;999.90;;;;;;;29.52;45.55;100314.72;15385739;28;20043;-60
2021/06/20 20:17:12;;;;;;;1999.90;999.90;;;;;;;29.34;45.76;100317.47;15426876;28;20146;-60
2021/06/20 20:24:47;;;;;;;1999.90;999.90;;;;;;;29.24;47.83;100313.75;15463004;28;20046;-60
2021/06/20 20:32:19;;;;;;;1999.90;999.90;;;;;;;29.09;47.72;100307.00;15415527;28;20052;-61
2021/06/20 20:39:54;;;;;;;1999.90;999.90;;;;;;;29.03;48.26;100306.00;15411814;28;20093;-62
2021/06/20 20:47:28;;;;;;;1999.90;999.90;;;;;;;28.94;47.97;100300.19;15433670;28;20385;-61
2021/06/20 20:55:04;;;;;;;1999.90;999.90;;;;;;;28.86;48.24;100296.75;15419913;28;20043;-62
2021/06/20 21:02:36;;;;;;;1999.90;999.90;;;;;;;28.82;48.80;100284.63;15413981;28;20047;-62
2021/06/20 21:10:11;;;;;;;1999.90;999.90;;;;;;;28.73;50.46;100273.06;15423051;28;20118;-61
2021/06/20 21:17:43;;;;;;;1999.90;999.90;;;;;;;28.71;49.93;100244.84;15398219;28;20055;-61
2021/06/20 21:25:18;;;;;;;1999.90;999.90;;;;;;;28.50;50.54;100245.69;15409348;28;20043;-62
2021/06/20 21:32:50;;;;;;;1999.90;999.90;;;;;;;28.25;51.69;100245.78;15395355;28;20126;-62
2021/06/20 21:40:27;;;;;;;1999.90;999.90;;;;;;;28.17;52.31;100246.03;15402357;28;20082;-53
2021/06/20 21:47:59;;;;;;;1999.90;999.90;;;;;;;28.18;51.93;100223.91;15431141;28;20050;-58
2021/06/20 21:55:33;;;;;;;;;;;;;;;28.16;52.35;100212.91;15417749;28;20049;-59
2021/06/20 22:03:07;;;;;;;1999.90;999.90;;;;;;;28.07;51.76;100195.63;15425601;28;19929;-55
2021/06/20 22:10:41;;;;;;;1999.90;999.90;;;;;;;27.98;51.70;100181.19;15469479;28;20077;-52
2021/06/20 22:18:13;;;;;;;1999.90;999.90;;;;;;;27.92;51.37;100159.31;15403621;28;20523;-54
2021/06/20 22:25:47;;;;;;;;;;;;;;;27.81;52.12;100165.44;15420548;28;20046;-54
2021/06/20 22:33:21;;;;;;;1999.90;999.90;;;;;;;27.58;52.21;100152.31;15416103;28;19928;-52
2021/06/20 22:40:55;;;;;;;1999.90;999.90;;;;;;;27.40;52.96;100152.94;15408498;28;20055;-53
2021/06/20 22:48:27;;;;;;;1999.90;999.90;;;;;;;27.11;53.82;100150.28;15391808;28;20531;-55
2021/06/20 22:56:00;;;;;;;;;;;;;;;27.26;53.93;100145.66;15378073;28;20090;-55
2021/06/20 23:03:32;;;;;;;1999.90;999.90;;;;;;;27.02;53.56;100138.72;15418688;28;20309;-56
2021/06/20 23:11:06;;;;;;;;;;;;;;;26.95;55.55;100116.81;15384036;28;20039;-58
2021/06/20 23:18:38;;;;;;;1999.90;999.90;;;;;;;26.62;55.18;100107.69;15387532;28;19930;-56
2021/06/20 23:26:11;;;;;;;1999.90;999.90;;;;;;;26.61;56.18;100100.38;15402884;28;20059;-53
2021/06/20 23:33:44;;;;;;;1999.90;999.90;;;;;;;26.52;56.61;100114.56;15381150;28;20071;-52
2021/06/20 23:41:17;;;;;;;;;;;;;;;26.52;56.97;100130.91;15407831;28;20505;-54
2021/06/20 23:48:49;;;;;;;1999.90;999.90;;;;;;;26.32;56.58;100125.38;15420295;28;19992;-53
2021/06/20 23:56:22;;;;;;;1999.90;999.90;;;;;;;26.40;56.71;100129.66;15418372;28;20122;-53
